Time;durP1;ratioP1;P1;durP2;ratioP2;P2;SDS_P1;SDS_P2;PMS_P1;PMS_P2;Temp;Humidity;BMP_temperature;BMP_pressure;BME280_temperature;BME280_humidity;BME280_pressure;Samples;Min_cycle;Max_cycle;Signal;HPM_P1;HPM_P2
2022/11/10 00:01:07;;;;;;;103.70;53.40;;;;;;;9.32;69.03;95905.91;5069482;28;20498;-78
2022/11/10 00:03:35;;;;;;;98.63;54.08;;;;;;;9.30;69.79;95902.72;5056806;28;20066;-78
2022/11/10 00:06:09;;;;;;;105.80;52.08;;;;;;;9.32;69.39;95907.75;5072476;28;20054;-78
2022/11/10 00:08:36;;;;;;;108.47;53.28;;;;;;;9.34;69.05;95908.31;5072016;28;20040;-78
2022/11/10 00:11:08;;;;;;;110.57;54.97;;;;;;;9.29;69.25;95906.44;5071249;28;20059;-78
2022/11/10 00:16:59;;;;;;;109.95;56.90;;;;;;;8.52;69.57;95790.16;5060579;28;20480;-78
2022/11/10 00:19:17;;;;;;;104.68;52.53;;;;;;;9.08;70.56;95908.00;5055511;28;20186;-78
2022/11/10 00:21:44;;;;;;;115.70;59.30;;;;;;;8.94;70.75;95882.97;5070805;28;20048;-78
2022/11/10 00:24:13;;;;;;;108.78;57.97;;;;;;;9.14;70.37;95911.53;5071145;28;20055;-78
2022/11/10 00:26:41;;;;;;;105.80;56.55;;;;;;;9.14;70.18;95909.69;5065020;28;20033;-78
2022/11/10 00:29:09;;;;;;;116.78;60.15;;;;;;;9.15;69.68;95903.34;5050867;28;20503;-78
2022/11/10 00:31:40;;;;;;;120.70;59.50;;;;;;;9.01;69.96;95891.53;5060651;28;20047;-78
2022/11/10 00:34:12;;;;;;;106.22;56.25;;;;;;;9.18;70.41;95912.63;5071008;28;20048;-78
2022/11/10 00:36:39;;;;;;;;;;;;;;;9.15;70.24;95908.66;5076654;28;20487;-78
2022/11/10 00:39:06;;;;;;;126.22;57.95;;;;;;;8.52;69.79;95813.94;5066298;28;19920;-78
2022/11/10 00:41:31;;;;;;;110.68;57.30;;;;;;;9.06;70.18;95902.19;5071699;28;20044;-78
2022/11/10 00:43:59;;;;;;;112.47;60.58;;;;;;;8.61;69.77;95827.53;5071106;28;20135;-78
2022/11/10 00:46:27;;;;;;;117.85;60.08;;;;;;;9.02;69.95;95893.13;5070714;28;20052;-78
2022/11/10 00:48:53;;;;;;;115.20;59.88;;;;;;;8.17;69.79;95768.50;5071863;28;20046;-79
2022/11/10 00:51:23;;;;;;;114.32;58.35;;;;;;;8.63;69.49;95833.38;5069908;28;20071;-78
2022/11/10 00:53:52;;;;;;;117.70;60.53;;;;;;;8.90;69.96;95887.16;5071543;28;20051;-78
2022/11/10 00:56:19;;;;;;;108.22;58.38;;;;;;;8.72;69.50;95858.34;5071280;28;20494;-78
2022/11/10 00:58:47;;;;;;;109.18;59.13;;;;;;;8.51;69.46;95828.19;5070920;28;20047;-78
2022/11/10 01:01:16;;;;;;;113.03;57.63;;;;;;;8.68;69.81;95888.97;5070197;28;20045;-80
2022/11/10 01:03:42;;;;;;;112.82;57.13;;;;;;;8.60;70.02;95866.41;5089444;28;20036;-80
2022/11/10 01:06:14;;;;;;;110.55;54.55;;;;;;;8.09;69.78;95778.44;5089534;28;20047;-80
2022/11/10 01:08:41;;;;;;;104.82;57.63;;;;;;;8.52;69.77;95848.31;5071315;28;20039;-80
2022/11/10 01:11:09;;;;;;;104.63;56.45;;;;;;;8.49;70.45;95862.00;5091385;28;20545;-80
2022/11/10 01:13:35;;;;;;;110.38;59.42;;;;;;;8.25;70.30;95820.94;5093135;28;20531;-80
2022/11/10 01:16:13;;;;;;;109.97;55.55;;;;;;;8.69;69.67;95886.09;5074855;28;20048;-80
2022/11/10 01:18:38;;;;;;;115.70;57.40;;;;;;;8.56;69.96;95886.44;5092879;28;20043;-79
2022/11/10 01:21:05;;;;;;;100.43;54.38;;;;;;;8.08;69.53;95797.19;5072946;28;20044;-80
2022/11/10 01:23:31;;;;;;;111.55;57.50;;;;;;;8.61;70.30;95880.44;5093298;28;20139;-80
2022/11/10 01:26:02;;;;;;;110.20;56.30;;;;;;;8.11;70.19;95802.78;5093057;28;20070;-80
2022/11/10 01:28:28;;;;;;;112.93;57.25;;;;;;;7.96;70.15;95789.34;5074565;28;20032;-80
2022/11/10 01:31:04;;;;;;;117.60;57.38;;;;;;;8.30;70.07;95836.88;5074189;28;20055;-80
2022/11/10 01:33:30;;;;;;;114.05;57.15;;;;;;;8.56;69.97;95880.34;5092493;28;20039;-80
2022/11/10 01:35:56;;;;;;;109.88;56.08;;;;;;;8.39;70.18;95862.66;5074591;28;20390;-80
2022/11/10 01:38:22;;;;;;;107.88;56.17;;;;;;;8.12;69.82;95835.28;5092991;28;20040;-80
2022/11/10 01:40:48;;;;;;;110.88;57.85;;;;;;;7.72;69.86;95767.59;5091924;28;20044;-80
2022/11/10 01:43:14;;;;;;;108.60;56.60;;;;;;;8.18;69.54;95836.16;5092418;28;20044;-80
2022/11/10 01:45:45;;;;;;;107.35;56.72;;;;;;;8.38;70.06;95882.22;5092824;28;20494;-81
2022/11/10 01:48:18;;;;;;;104.43;55.83;;;;;;;8.38;69.78;95876.94;5057935;28;20128;-81
2022/11/10 01:50:46;;;;;;;114.47;59.53;;;;;;;7.73;69.46;95777.13;5072541;28;20047;-81
2022/11/10 01:53:19;;;;;;;114.18;56.22;;;;;;;8.37;70.14;95877.19;5054604;28;20088;-80
2022/11/10 01:55:47;;;;;;;102.72;54.25;;;;;;;8.23;69.73;95866.13;5089719;28;20130;-80
2022/11/10 01:58:15;;;;;;;112.45;58.00;;;;;;;7.97;69.88;95835.06;5058827;28;20525;-81
2022/11/10 02:00:42;;;;;;;117.30;57.65;;;;;;;7.73;69.60;95789.53;5091862;28;20036;-80
2022/11/10 02:03:43;;;;;;;124.55;58.78;;;;;;;8.28;69.67;95879.38;5092146;28;20047;-80
2022/11/10 02:06:09;;;;;;;108.13;56.97;;;;;;;8.27;69.70;95869.84;5066951;28;20124;-80
2022/11/10 02:08:35;;;;;;;116.32;57.50;;;;;;;7.86;70.50;95820.88;5092575;28;20516;-80
2022/11/10 02:11:01;;;;;;;116.43;59.47;;;;;;;8.03;70.32;95852.56;5073286;28;20130;-80
2022/11/10 02:13:26;;;;;;;105.50;56.13;;;;;;;7.70;70.26;95798.72;5091988;28;20044;-80
2022/11/10 02:15:52;;;;;;;110.55;56.60;;;;;;;7.79;70.54;95817.59;5074070;28;20055;-80
2022/11/10 02:18:17;;;;;;;113.93;57.08;;;;;;;8.21;70.31;95878.75;5073342;28;20048;-80
2022/11/10 02:20:44;;;;;;;108.80;54.80;;;;;;;7.68;70.15;95805.28;5072891;28;20036;-80
2022/11/10 02:23:30;;;;;;;110.82;56.15;;;;;;;8.19;70.72;95880.84;5072082;28;20044;-80
2022/11/10 02:25:56;;;;;;;102.70;54.05;;;;;;;8.05;70.53;95874.28;5071542;28;20052;-80
2022/11/10 02:28:23;;;;;;;104.30;56.92;;;;;;;8.20;70.90;95893.00;5091761;28;20498;-80
2022/11/10 02:30:49;;;;;;;108.75;55.65;;;;;;;7.59;70.86;95791.69;5073455;28;20570;-81
2022/11/10 02:33:17;;;;;;;114.18;55.05;;;;;;;7.70;70.70;95811.91;5073169;28;20040;-81
2022/11/10 02:35:44;;;;;;;105.90;54.17;;;;;;;7.84;70.75;95832.75;5091982;28;20094;-81
2022/11/10 02:38:10;;;;;;;109.93;54.45;;;;;;;7.99;71.03;95854.91;5078060;28;20036;-81
2022/11/10 02:40:35;;;;;;;103.60;54.97;;;;;;;7.72;70.59;95814.31;5085950;28;20039;-80
2022/11/10 02:43:03;;;;;;;111.63;56.53;;;;;;;7.73;70.25;95822.00;5091356;28;20071;-80
2022/11/10 02:45:28;;;;;;;106.43;52.50;;;;;;;8.26;70.15;95899.97;5091240;28;20498;-81
2022/11/10 02:47:53;;;;;;;100.45;51.50;;;;;;;7.24;70.29;95746.25;5073394;28;20043;-80
2022/11/10 02:50:19;;;;;;;101.75;53.63;;;;;;;8.25;70.71;95908.94;5072776;28;20048;-80
2022/11/10 02:52:44;;;;;;;106.05;52.13;;;;;;;7.36;70.44;95766.25;5091167;28;20166;-80
2022/11/10 02:55:10;;;;;;;98.30;51.83;;;;;;;7.38;70.08;95779.19;5091165;28;20043;-80
2022/11/10 02:57:36;;;;;;;108.75;54.97;;;;;;;7.55;70.17;95805.59;5091210;28;20047;-80
2022/11/10 03:00:03;;;;;;;98.28;53.53;;;;;;;7.93;70.13;95863.00;5072970;28;20525;-79
2022/11/10 03:02:29;;;;;;;101.13;52.85;;;;;;;7.59;70.20;95818.09;5072795;28;20039;-78
2022/11/10 03:04:54;;;;;;;103.97;54.83;;;;;;;7.59;69.54;95818.09;5072839;28;20036;-78
2022/11/10 03:07:20;;;;;;;114.85;54.78;;;;;;;8.13;70.04;95905.56;5062412;28;20388;-79
2022/11/10 03:09:45;;;;;;;114.30;53.90;;;;;;;7.53;69.86;95818.25;5064769;28;20051;-79
2022/11/10 03:12:10;;;;;;;105.65;54.28;;;;;;;7.45;70.39;95808.88;5072910;28;20417;-79
2022/11/10 03:14:36;;;;;;;98.40;51.88;;;;;;;7.68;70.19;95843.06;5091147;28;20043;-79
2022/11/10 03:17:01;;;;;;;109.43;51.92;;;;;;;7.36;70.31;95789.97;5091565;28;20059;-79
2022/11/10 03:19:27;;;;;;;111.85;54.13;;;;;;;7.72;70.28;95862.66;5091104;28;20071;-79
2022/11/10 03:21:52;;;;;;;106.63;53.88;;;;;;;7.69;70.50;95862.34;5072923;28;20044;-79
2022/11/10 03:24:17;;;;;;;101.75;53.25;;;;;;;8.03;70.14;95915.97;5073023;28;20074;-79
2022/11/10 03:26:43;;;;;;;105.80;54.10;;;;;;;7.93;69.93;95902.63;5072897;28;20086;-79
2022/11/10 03:29:08;;;;;;;98.88;51.33;;;;;;;7.85;70.78;95911.72;5072702;28;20031;-79
2022/11/10 03:31:34;;;;;;;109.00;52.10;;;;;;;7.78;70.31;95897.88;5072428;28;20055;-78
2022/11/10 03:33:59;;;;;;;104.18;52.40;;;;;;;7.90;70.65;95913.66;5089943;28;20064;-78
2022/11/10 03:36:24;;;;;;;96.90;49.67;;;;;;;7.44;70.40;95854.78;5072706;28;20578;-78
2022/11/10 03:38:51;;;;;;;99.82;51.55;;;;;;;7.47;70.37;95864.88;5090822;28;20163;-79
2022/11/10 03:41:17;;;;;;;101.10;53.33;;;;;;;7.82;70.42;95914.84;5091017;28;20047;-78
2022/11/10 03:43:42;;;;;;;96.18;49.72;;;;;;;7.56;70.34;95876.63;5072394;28;20050;-78
2022/11/10 03:46:08;;;;;;;95.35;49.30;;;;;;;7.50;70.71;95877.56;5090535;28;20040;-78
2022/11/10 03:48:33;;;;;;;94.25;49.38;;;;;;;7.82;70.08;95928.03;5090617;28;20047;-79
2022/11/10 03:50:59;;;;;;;103.18;49.10;;;;;;;7.78;70.48;95919.00;5090590;28;20043;-79
2022/11/10 03:53:24;;;;;;;103.03;50.22;;;;;;;7.33;70.51;95856.41;5090787;28;20040;-80
2022/11/10 03:55:49;;;;;;;95.40;47.13;;;;;;;7.64;70.20;95896.56;5072230;28;20061;-79
2022/11/10 03:58:15;;;;;;;99.88;49.00;;;;;;;7.20;70.17;95832.97;5090839;28;20203;-79
2022/11/10 04:00:40;;;;;;;90.70;46.90;;;;;;;7.33;70.37;95866.97;5072119;28;20881;-79
2022/11/10 04:03:09;;;;;;;101.80;46.47;;;;;;;7.57;70.21;95912.53;5090941;28;20040;-79
2022/11/10 04:11:02;;;;;;;84.05;47.95;;;;;;;7.63;70.58;95939.81;5090532;28;20082;-79
2022/11/10 04:16:12;;;;;;;85.53;43.63;;;;;;;7.47;70.34;95922.13;5090197;28;20082;-80
2022/11/10 04:18:37;;;;;;;93.07;44.63;;;;;;;6.45;70.74;95806.72;5072217;28;20072;-79
2022/11/10 04:21:03;;;;;;;78.85;43.15;;;;;;;7.15;70.53;95892.75;5091101;28;20101;-79
2022/11/10 04:23:34;;;;;;;77.15;42.90;;;;;;;6.89;70.65;95850.03;5089930;28;20044;-79
2022/11/10 04:26:27;;;;;;;93.50;45.08;;;;;;;7.03;70.19;95874.31;5072244;28;20138;-79
2022/11/10 04:29:01;;;;;;;84.70;43.63;;;;;;;7.15;70.53;95892.75;5090212;28;20494;-79
2022/11/10 04:31:30;;;;;;;82.53;42.45;;;;;;;7.24;70.70;95920.38;5090598;28;20040;-79
2022/11/10 04:33:56;;;;;;;81.82;43.80;;;;;;;7.21;70.87;95918.19;5090038;28;20123;-79
2022/11/10 04:36:25;;;;;;;83.68;41.30;;;;;;;6.93;70.84;95872.28;5090080;28;20123;-79
2022/11/10 04:38:50;;;;;;;89.03;44.47;;;;;;;7.40;70.93;95945.22;5090053;28;20143;-79
2022/11/10 04:41:16;;;;;;;86.88;43.03;;;;;;;6.95;70.54;95879.94;5089519;28;20127;-79
2022/11/10 04:43:42;;;;;;;88.78;44.83;;;;;;;7.35;70.55;95941.41;5090301;28;20102;-79
2022/11/10 04:46:36;;;;;;;89.40;43.63;;;;;;;7.39;70.68;95936.50;5074690;28;20044;-79
2022/11/10 04:49:03;;;;;;;87.18;41.47;;;;;;;7.39;70.44;95944.41;5072128;28;20040;-79
2022/11/10 04:51:36;;;;;;;81.60;42.90;;;;;;;7.41;70.40;95949.44;5075457;28;20116;-78
2022/11/10 04:54:02;;;;;;;81.85;43.25;;;;;;;6.95;70.23;95886.00;5093514;28;20063;-78
2022/11/10 04:56:28;;;;;;;81.32;40.75;;;;;;;6.77;70.86;95857.19;5075226;28;20070;-79
2022/11/10 04:58:54;;;;;;;85.93;42.80;;;;;;;7.26;70.62;95944.66;5052929;28;20052;-79
2022/11/10 05:01:23;;;;;;;80.97;42.45;;;;;;;6.67;70.36;95848.25;5053103;28;20059;-79
2022/11/10 05:03:49;;;;;;;77.82;41.50;;;;;;;7.32;70.58;95954.31;5035423;28;20044;-79
2022/11/10 05:06:15;;;;;;;83.95;40.80;;;;;;;7.21;71.73;95953.28;5035265;28;20048;-79
2022/11/10 05:08:42;;;;;;;90.35;40.80;;;;;;;6.51;71.58;95841.88;5034721;28;20028;-78
2022/11/10 05:11:09;;;;;;;81.53;39.42;;;;;;;7.38;71.36;95957.84;5052174;28;20049;-78
2022/11/10 05:13:34;;;;;;;86.60;42.63;;;;;;;6.84;71.28;95873.69;5050738;28;20041;-81
2022/11/10 05:16:00;;;;;;;85.70;43.33;;;;;;;7.42;71.64;95957.13;5063324;28;20426;-79
2022/11/10 05:18:25;;;;;;;78.88;40.25;;;;;;;7.35;71.61;95943.25;5048026;28;20040;-79
2022/11/10 05:20:52;;;;;;;89.32;41.83;;;;;;;7.46;71.16;95960.91;5052949;28;20029;-79
2022/11/10 05:23:38;;;;;;;98.90;44.35;;;;;;;7.50;71.51;95959.38;5060076;28;20040;-79
2022/11/10 05:26:11;;;;;;;94.97;46.08;;;;;;;7.01;71.99;95894.06;5035511;28;20033;-79
2022/11/10 05:28:40;;;;;;;92.15;43.10;;;;;;;6.65;72.42;95819.50;5045327;28;20102;-79
2022/11/10 05:31:07;;;;;;;89.15;43.42;;;;;;;7.01;72.71;95883.50;5034115;28;20067;-80
2022/11/10 05:33:33;;;;;;;89.75;44.30;;;;;;;7.63;72.69;95967.03;5064880;28;20398;-79
2022/11/10 05:35:59;;;;;;;109.13;52.50;;;;;;;7.43;74.41;95929.69;5036208;28;20040;-79
2022/11/10 05:38:25;;;;;;;89.72;46.08;;;;;;;7.46;75.37;95936.34;5052521;28;20051;-79
2022/11/10 05:40:50;;;;;;;96.35;44.70;;;;;;;7.44;74.14;95933.13;5069678;28;20032;-78
2022/11/10 05:43:16;;;;;;;107.60;47.28;;;;;;;7.17;73.71;95883.53;5048119;28;20393;-79
2022/11/10 05:45:41;;;;;;;101.70;47.95;;;;;;;7.58;73.59;95956.38;5062366;28;20036;-79
2022/11/10 05:48:07;;;;;;;100.40;52.45;;;;;;;7.79;73.83;95976.03;5052941;28;20316;-79
2022/11/10 05:50:32;;;;;;;105.30;54.65;;;;;;;7.87;73.83;95972.22;5060963;28;20638;-79
2022/11/10 05:52:57;;;;;;;126.47;64.28;;;;;;;7.66;73.82;95948.09;5067745;28;20048;-80
2022/11/10 05:55:26;;;;;;;122.28;57.75;;;;;;;7.73;74.02;95961.13;5063621;28;20036;-79
2022/11/10 05:57:53;;;;;;;98.30;51.72;;;;;;;7.37;73.83;95893.69;5069492;28;20108;-80
2022/11/10 06:00:22;;;;;;;95.35;48.67;;;;;;;7.57;73.73;95920.44;5066262;28;20128;-80
2022/11/10 06:03:12;;;;;;;94.53;46.38;;;;;;;8.04;73.84;95983.63;5048299;28;20139;-79
2022/11/10 06:05:37;;;;;;;103.38;44.30;;;;;;;7.70;73.46;95927.31;5055280;28;20044;-81
2022/11/10 06:08:04;;;;;;;87.57;43.88;;;;;;;7.48;73.96;95889.38;5070587;28;20382;-81
2022/11/10 06:10:31;;;;;;;81.10;41.65;;;;;;;7.71;73.55;95921.75;5041355;28;20269;-80
2022/11/10 06:12:56;;;;;;;78.25;40.70;;;;;;;7.98;74.00;95958.16;5062611;28;20088;-79
2022/11/10 06:15:24;;;;;;;82.05;41.67;;;;;;;8.21;73.91;95981.81;5067277;28;20032;-80
2022/11/10 06:17:50;;;;;;;82.75;37.85;;;;;;;8.33;73.65;96000.25;5044324;28;20505;-80
2022/11/10 06:20:16;;;;;;;95.35;40.10;;;;;;;7.77;73.31;95911.31;5038014;28;20037;-80
2022/11/10 06:22:43;;;;;;;107.38;51.50;;;;;;;8.08;73.89;95937.22;5064690;28;20036;-81
2022/11/10 06:25:09;;;;;;;124.97;55.88;;;;;;;8.59;73.68;96014.69;5059083;28;20144;-80
2022/11/10 06:27:35;;;;;;;112.43;53.85;;;;;;;7.86;74.74;95899.31;5044227;28;20052;-80
2022/11/10 06:30:02;;;;;;;152.98;73.15;;;;;;;7.38;74.08;95862.84;5046825;28;20062;-81
2022/11/10 06:32:27;;;;;;;152.48;76.63;;;;;;;8.15;73.34;95980.13;5062971;28;20488;-80
2022/11/10 06:34:52;;;;;;;153.52;74.45;;;;;;;7.55;71.90;95917.25;5058584;28;20044;-80
2022/11/10 06:37:18;;;;;;;160.52;77.72;;;;;;;7.60;72.59;95917.34;5060638;28;20066;-80
2022/11/10 06:39:43;;;;;;;148.73;76.00;;;;;;;7.36;71.59;95863.06;5061601;28;20131;-80
2022/11/10 06:42:09;;;;;;;139.77;73.85;;;;;;;8.33;71.45;96029.31;5066824;28;20048;-80
2022/11/10 06:44:34;;;;;;;155.27;71.57;;;;;;;7.72;70.41;95914.66;5045694;28;20109;-79
2022/11/10 06:47:00;;;;;;;141.82;70.75;;;;;;;8.22;70.82;95993.19;5044644;28;20044;-80
2022/11/10 06:49:25;;;;;;;142.32;69.55;;;;;;;8.57;70.26;96056.44;5041065;28;20063;-79
2022/11/10 06:51:51;;;;;;;145.07;68.40;;;;;;;8.49;71.08;96055.78;5058195;28;20062;-79
2022/11/10 06:54:16;;;;;;;130.63;66.40;;;;;;;8.54;70.25;96039.22;5044761;28;20047;-80
2022/11/10 06:56:42;;;;;;;143.88;70.75;;;;;;;8.05;70.84;95964.09;5046669;28;20044;-80
2022/11/10 06:59:07;;;;;;;138.32;69.28;;;;;;;8.16;70.38;95963.25;5051650;28;20036;-81
2022/11/10 07:01:33;;;;;;;146.15;69.38;;;;;;;8.27;69.66;95970.28;5045499;28;20039;-81
2022/11/10 07:03:58;;;;;;;136.93;66.63;;;;;;;8.22;70.37;95946.41;5035827;28;20194;-80
2022/11/10 07:06:23;;;;;;;137.25;65.53;;;;;;;8.25;70.42;95953.06;5035789;28;20135;-80
2022/11/10 07:08:49;;;;;;;138.75;66.85;;;;;;;8.54;70.39;95978.41;5050268;28;20584;-81
2022/11/10 07:11:15;;;;;;;136.10;65.78;;;;;;;8.52;70.72;95980.50;5063184;28;20037;-80
2022/11/10 07:13:40;;;;;;;135.25;65.80;;;;;;;8.90;72.03;96057.25;5029972;28;20051;-82
2022/11/10 07:16:06;;;;;;;139.85;64.35;;;;;;;9.12;71.08;96057.31;5041272;28;20043;-80
2022/11/10 07:18:33;;;;;;;150.90;69.07;;;;;;;9.14;71.47;96051.78;5061932;28;20036;-81
2022/11/10 07:21:00;;;;;;;145.10;66.50;;;;;;;9.11;71.22;96052.25;5029998;28;20142;-80
2022/11/10 07:23:26;;;;;;;163.30;67.28;;;;;;;8.83;71.17;95981.75;5039615;28;20532;-80
2022/11/10 07:25:51;;;;;;;144.02;66.10;;;;;;;8.74;71.08;95954.13;5044536;28;20044;-81
2022/11/10 07:28:16;;;;;;;150.95;65.88;;;;;;;9.40;70.90;96064.31;5039186;28;20460;-81
2022/11/10 07:30:42;;;;;;;145.45;66.45;;;;;;;8.98;70.92;96003.16;5061129;28;20132;-79
2022/11/10 07:33:12;;;;;;;149.65;68.10;;;;;;;9.27;71.51;96056.75;5069042;28;20063;-80
2022/11/10 07:35:38;;;;;;;138.97;67.17;;;;;;;9.38;71.52;96058.50;5024798;28;20079;-80
2022/11/10 07:38:07;;;;;;;148.95;67.75;;;;;;;9.44;70.80;96062.81;5042431;28;20402;-81
2022/11/10 07:40:33;;;;;;;156.25;68.47;;;;;;;9.10;71.50;96050.66;5061572;28;20040;-81
2022/11/10 07:42:58;;;;;;;149.27;65.43;;;;;;;9.40;71.42;96059.03;5037105;28;20047;-78
2022/11/10 07:45:25;;;;;;;135.85;63.90;;;;;;;9.18;71.50;96040.47;5061716;28;20139;-80
2022/11/10 07:47:50;;;;;;;137.52;66.00;;;;;;;9.10;71.84;96022.34;5060230;28;20482;-80
2022/11/10 07:50:18;;;;;;;144.25;65.03;;;;;;;9.17;71.53;96014.25;5055577;28;20040;-80
2022/11/10 07:52:44;;;;;;;134.88;61.97;;;;;;;9.38;71.55;96062.97;5047372;28;20049;-80
2022/11/10 07:55:09;;;;;;;155.05;64.03;;;;;;;9.09;71.99;95996.94;5034891;28;20070;-83
2022/11/10 07:57:34;;;;;;;141.30;61.28;;;;;;;9.19;71.79;96006.88;5055371;28;20032;-81
2022/11/10 08:00:00;;;;;;;133.23;62.33;;;;;;;9.61;71.02;96060.88;5058389;28;20544;-80
2022/11/10 08:02:26;;;;;;;138.13;63.22;;;;;;;9.60;71.55;96061.16;5034041;28;20088;-81
2022/11/10 08:04:51;;;;;;;148.07;66.32;;;;;;;8.40;71.15;95872.19;5057530;28;20131;-81
2022/11/10 08:07:17;;;;;;;146.05;63.30;;;;;;;8.64;71.09;95915.09;5037652;28;20251;-80
2022/11/10 08:09:43;;;;;;;133.38;62.72;;;;;;;9.72;71.77;96058.38;5021662;28;20037;-79
2022/11/10 08:12:09;;;;;;;131.05;65.13;;;;;;;9.11;71.07;95957.00;5056973;28;20136;-80
2022/11/10 08:14:34;;;;;;;154.15;68.45;;;;;;;9.27;70.94;95986.06;5057420;28;20040;-79
2022/11/10 08:17:00;;;;;;;150.90;65.70;;;;;;;9.38;70.82;95994.16;5039524;28;20777;-80
2022/11/10 08:19:25;;;;;;;152.13;65.50;;;;;;;9.50;71.47;96016.81;5043583;28;20098;-80
2022/11/10 08:21:51;;;;;;;138.98;66.93;;;;;;;9.83;71.89;96063.56;5046003;28;20045;-80
2022/11/10 08:24:16;;;;;;;174.15;69.72;;;;;;;9.44;71.55;96001.09;5041292;28;20118;-80
2022/11/10 08:26:42;;;;;;;152.63;68.05;;;;;;;9.73;72.21;96065.28;5060704;28;20104;-81
2022/11/10 08:29:07;;;;;;;136.40;62.42;;;;;;;9.39;72.20;95990.44;5048406;28;20036;-80
2022/11/10 08:31:33;;;;;;;147.32;67.63;;;;;;;8.84;72.51;95923.34;5055847;28;20716;-80
2022/11/10 08:33:58;;;;;;;163.75;73.53;;;;;;;9.72;72.95;96068.97;5059057;28;20036;-81
2022/11/10 08:36:24;;;;;;;165.73;71.57;;;;;;;9.49;73.12;96033.72;5053266;28;20036;-81
2022/11/10 08:38:49;;;;;;;166.63;72.70;;;;;;;9.36;72.70;96002.34;5061496;28;20045;-81
2022/11/10 08:41:15;;;;;;;171.80;75.05;;;;;;;9.62;72.93;96033.38;5067877;28;20036;-81
2022/11/10 08:43:40;;;;;;;146.65;71.75;;;;;;;9.60;72.68;96050.56;5044191;28;20037;-81
2022/11/10 08:46:06;;;;;;;159.70;73.65;;;;;;;9.62;72.85;96019.31;5043582;28;20039;-80
2022/11/10 08:48:32;;;;;;;164.27;74.78;;;;;;;9.63;72.47;96012.97;5040052;28;20289;-81
2022/11/10 08:51:00;;;;;;;153.57;74.30;;;;;;;10.10;72.29;96065.44;5061673;28;20044;-81
2022/11/10 08:53:26;;;;;;;144.63;70.90;;;;;;;9.68;71.73;96013.06;5057951;28;20042;-80
2022/11/10 08:55:54;;;;;;;168.27;75.78;;;;;;;10.05;72.30;96068.84;5034774;28;20040;-81
2022/11/10 08:58:22;;;;;;;162.13;78.05;;;;;;;10.04;72.91;96070.69;5042373;28;20056;-81
2022/11/10 09:00:47;;;;;;;161.30;72.93;;;;;;;9.57;72.56;95979.53;5024862;28;20047;-81
2022/11/10 09:03:21;;;;;;;175.63;79.07;;;;;;;10.26;72.42;96070.69;5061490;28;20352;-80
2022/11/10 09:05:48;;;;;;;157.02;76.38;;;;;;;10.16;72.20;96035.28;5049643;28;20123;-79
2022/11/10 09:08:14;;;;;;;143.07;74.68;;;;;;;9.78;71.84;96001.75;5055957;28;20043;-79
2022/11/10 09:10:46;;;;;;;152.57;74.38;;;;;;;10.18;72.03;96052.59;5064501;28;20135;-79
2022/11/10 09:13:13;;;;;;;142.38;72.32;;;;;;;10.52;71.29;96074.41;5039025;28;20582;-80
2022/11/10 09:15:40;;;;;;;134.88;70.78;;;;;;;10.53;72.04;96064.63;5046502;28;20128;-79
2022/11/10 09:18:07;;;;;;;141.15;70.05;;;;;;;9.87;72.12;95982.53;5052084;28;20123;-79
2022/11/10 09:20:35;;;;;;;145.57;72.47;;;;;;;10.44;71.89;96072.22;5050532;28;20593;-78
2022/11/10 09:23:06;;;;;;;135.77;68.45;;;;;;;9.76;71.33;95949.06;5030042;28;20060;-79
2022/11/10 09:25:31;;;;;;;128.60;68.28;;;;;;;10.10;71.55;95978.78;5028624;28;20036;-79
2022/11/10 09:27:57;;;;;;;127.60;67.30;;;;;;;10.41;70.66;96025.78;5050511;28;20044;-79
2022/11/10 09:30:24;;;;;;;130.68;67.25;;;;;;;10.32;70.52;95984.06;5046731;28;20044;-79
2022/11/10 09:32:56;;;;;;;135.32;67.78;;;;;;;10.89;70.32;96063.06;5059199;28;20047;-78
2022/11/10 09:35:22;;;;;;;125.82;65.68;;;;;;;10.73;71.48;96028.44;5060170;28;20070;-79
2022/11/10 09:37:48;;;;;;;128.50;66.97;;;;;;;10.91;70.55;96055.66;5059553;28;20653;-81
2022/11/10 09:40:20;;;;;;;134.40;68.57;;;;;;;10.49;70.47;95968.03;5062778;28;20074;-80
2022/11/10 09:42:47;;;;;;;129.20;67.45;;;;;;;10.98;70.59;96054.38;5050983;28;20153;-80
2022/11/10 09:45:18;;;;;;;140.18;69.38;;;;;;;10.87;70.23;96035.97;5041161;28;20136;-81
2022/11/10 09:47:54;;;;;;;;;;;;;;;11.05;70.25;96056.81;5044648;28;20371;-82
2022/11/10 09:50:43;;;;;;;118.50;64.93;;;;;;;11.15;70.48;96047.03;5058105;28;19920;-80
2022/11/10 09:53:18;;;;;;;133.93;66.45;;;;;;;10.88;69.88;96009.19;5054063;28;20052;-80
2022/11/10 09:56:00;;;;;;;127.57;66.13;;;;;;;10.99;69.59;95946.34;5059011;28;20048;-79
2022/11/10 09:58:34;;;;;;;122.32;62.58;;;;;;;12.48;67.71;96049.22;5042008;28;20051;-80
2022/11/10 10:01:18;;;;;;;127.45;61.33;;;;;;;13.33;64.01;96042.34;5059523;28;20476;-80
2022/11/10 10:03:51;;;;;;;116.85;62.15;;;;;;;13.13;61.62;95947.28;5042205;28;20087;-80
2022/11/10 10:06:18;;;;;;;114.10;56.70;;;;;;;14.14;59.57;95969.22;5037006;28;20124;-80
2022/11/10 10:09:03;;;;;;;108.85;57.90;;;;;;;15.07;57.82;96031.28;5042001;28;20044;-80
2022/11/10 10:11:37;;;;;;;106.95;55.90;;;;;;;15.68;55.95;96035.25;5044300;28;20055;-81
2022/11/10 10:14:06;;;;;;;105.03;56.67;;;;;;;15.95;54.12;96037.34;5066376;28;20517;-80
2022/11/10 10:17:02;;;;;;;111.13;55.25;;;;;;;16.32;52.58;96033.94;5054959;28;20044;-79
2022/11/10 10:19:43;;;;;;;100.65;54.05;;;;;;;16.56;52.30;96040.81;5063042;28;20040;-80
2022/11/10 10:22:33;;;;;;;92.03;53.30;;;;;;;16.62;52.14;96038.91;5065386;28;20040;-80
2022/11/10 10:25:02;;;;;;;97.95;53.90;;;;;;;16.59;51.94;96018.00;5060281;28;20152;-80
2022/11/10 10:27:30;;;;;;;88.40;52.25;;;;;;;16.46;51.64;95982.06;5024352;28;20089;-79
2022/11/10 10:29:56;;;;;;;100.65;54.45;;;;;;;16.71;51.30;96028.31;5056563;28;20170;-80
2022/11/10 10:32:21;;;;;;;90.38;50.83;;;;;;;16.12;51.12;95950.16;5045174;28;20136;-82
2022/11/10 10:34:49;;;;;;;94.80;51.20;;;;;;;15.39;52.46;95925.69;5038499;28;20096;-84
2022/11/10 10:37:38;;;;;;;90.88;50.88;;;;;;;15.93;52.29;96002.88;5037958;28;20671;-80
2022/11/10 10:40:04;;;;;;;91.50;52.65;;;;;;;15.34;52.69;95957.81;5056601;28;20135;-80
2022/11/10 10:42:34;;;;;;;84.20;47.55;;;;;;;14.70;54.18;95945.63;5052434;28;20758;-79
2022/11/10 10:45:19;;;;;;;86.00;49.30;;;;;;;15.15;54.95;96026.41;5036805;28;20045;-79
2022/11/10 10:47:48;;;;;;;86.22;47.90;;;;;;;14.57;55.04;95943.63;5057532;28;20048;-81
2022/11/10 10:50:32;;;;;;;82.22;48.17;;;;;;;15.20;54.92;96018.34;5060362;28;20043;-80
2022/11/10 10:53:15;;;;;;;84.65;47.13;;;;;;;14.93;55.04;96013.53;5041725;28;20056;-81
2022/11/10 10:55:59;;;;;;;85.70;48.03;;;;;;;13.88;56.53;95934.69;5050649;28;20101;-80
2022/11/10 10:58:41;;;;;;;90.20;49.03;;;;;;;14.08;57.29;95989.00;5034923;28;20661;-80
2022/11/10 11:01:19;;;;;;;95.88;49.58;;;;;;;14.29;57.75;96003.81;5060786;28;20048;-79
2022/11/10 11:03:48;;;;;;;85.80;47.80;;;;;;;14.17;57.94;95979.34;5048223;28;20079;-79
2022/11/10 11:06:14;;;;;;;88.80;48.13;;;;;;;14.40;57.19;96001.91;5041700;28;20147;-80
2022/11/10 11:09:21;;;;;;;78.22;44.75;;;;;;;14.37;57.49;96000.56;5042930;28;20525;-80
2022/11/10 11:12:01;;;;;;;74.47;43.08;;;;;;;14.67;56.42;95991.56;5038654;28;20079;-80
2022/11/10 11:14:29;;;;;;;78.22;45.78;;;;;;;14.48;55.99;95923.94;5042516;28;20043;-80
2022/11/10 11:16:54;;;;;;;78.43;44.38;;;;;;;15.05;55.86;95993.38;5064401;28;20124;-79
2022/11/10 11:19:23;;;;;;;82.70;46.47;;;;;;;14.68;55.40;95889.03;5040686;28;20200;-80
2022/11/10 11:22:19;;;;;;;79.07;46.85;;;;;;;15.66;54.48;95981.25;5026979;28;20247;-82
2022/11/10 11:25:03;;;;;;;88.43;46.65;;;;;;;15.65;53.54;95942.22;5053920;28;20055;-81
2022/11/10 11:28:02;;;;;;;74.43;45.28;;;;;;;15.31;53.02;95887.03;5038703;28;20442;-80
2022/11/10 11:30:43;;;;;;;77.93;44.40;;;;;;;15.34;53.47;95915.84;5026329;28;20048;-80
2022/11/10 11:33:20;;;;;;;77.10;44.20;;;;;;;15.87;53.39;95979.94;5024402;28;20048;-78
2022/11/10 11:36:30;;;;;;;79.13;44.60;;;;;;;15.47;52.82;95919.72;5032603;28;20050;-79
2022/11/10 11:39:32;;;;;;;71.50;43.60;;;;;;;15.83;52.58;95970.91;4978727;28;20054;-80